Time;durP1;ratioP1;P1;durP2;ratioP2;P2;SDS_P1;SDS_P2;PMS_P1;PMS_P2;Temp;Humidity;BMP_temperature;BMP_pressure;BME280_temperature;BME280_humidity;BME280_pressure;Samples;Min_cycle;Max_cycle;Signal;HPM_P1;HPM_P2
2023/05/23 00:01:09;;;;;;;6.63;3.08;;;;;;;;;;4915783;29;20044;-65
2023/05/23 00:03:36;;;;;;;6.32;2.72;;;;;;;;;;4916006;29;20044;-63
2023/05/23 00:06:05;;;;;;;8.27;3.10;;;;;;;;;;4914072;29;20462;-64
2023/05/23 00:08:30;;;;;;;8.98;2.90;;;;;;;;;;4910167;29;20055;-64
2023/05/23 00:10:56;;;;;;;11.48;3.40;;;;;;;;;;4912665;29;20052;-64
2023/05/23 00:13:22;;;;;;;7.53;2.97;;;;;;;;;;4911388;29;20044;-65
2023/05/23 00:15:49;;;;;;;10.82;3.17;;;;;;;;;;4912377;29;20067;-64
2023/05/23 00:18:15;;;;;;;7.10;2.70;;;;;;;;;;4914740;29;20155;-66
2023/05/23 00:20:42;;;;;;;7.15;3.00;;;;;;;;;;4913943;29;20060;-64
2023/05/23 00:23:08;;;;;;;5.50;3.03;;;;;;;;;;4911181;29;20048;-65
2023/05/23 00:25:36;;;;;;;8.00;3.10;;;;;;;;;;4909067;29;20056;-64
2023/05/23 00:28:03;;;;;;;9.38;3.80;;;;;;;;;;4912405;29;20048;-63
2023/05/23 00:30:32;;;;;;;5.55;3.42;;;;;;;;;;4912662;29;20123;-64
2023/05/23 00:32:59;;;;;;;7.97;3.67;;;;;;;;;;4913677;29;20055;-64
2023/05/23 00:35:27;;;;;;;9.70;3.40;;;;;;;;;;4912779;29;20287;-64
2023/05/23 00:37:54;;;;;;;7.28;3.08;;;;;;;;;;4914522;29;20044;-64
2023/05/23 00:40:21;;;;;;;9.98;2.92;;;;;;;;;;4913806;29;20523;-63
2023/05/23 00:42:47;;;;;;;6.30;2.90;;;;;;;;;;4908879;29;20163;-65
2023/05/23 00:45:14;;;;;;;7.30;2.65;;;;;;;;;;4914011;29;20080;-63
2023/05/23 00:47:41;;;;;;;7.90;2.70;;;;;;;;;;4912286;29;20123;-64
2023/05/23 00:50:11;;;;;;;7.60;2.60;;;;;;;;;;4906464;29;20056;-63
2023/05/23 00:52:38;;;;;;;5.82;2.95;;;;;;;;;;4912145;29;20048;-64
2023/05/23 00:55:04;;;;;;;6.57;3.20;;;;;;;;;;4914745;29;20289;-65
2023/05/23 00:57:38;;;;;;;11.43;3.20;;;;;;;;;;4903994;29;20059;-65
2023/05/23 01:00:08;;;;;;;7.00;2.90;;;;;;;;;;4910511;29;20056;-66
2023/05/23 01:02:40;;;;;;;7.55;3.65;;;;;;;;;;4912868;29;20044;-64
2023/05/23 01:05:06;;;;;;;6.85;3.30;;;;;;;;;;4911702;29;20047;-64
2023/05/23 01:07:32;;;;;;;7.30;4.20;;;;;;;;;;4908341;29;20055;-65
2023/05/23 01:09:58;;;;;;;9.55;4.20;;;;;;;;;;4907788;29;20076;-64
2023/05/23 01:12:45;;;;;;;6.10;4.25;;;;;;;;;;4912971;29;20072;-66
2023/05/23 01:15:15;;;;;;;9.50;4.88;;;;;;;;;;4915147;29;20056;-65
2023/05/23 01:18:07;;;;;;;12.32;4.78;;;;;;;;;;4907152;29;20370;-68
2023/05/23 01:20:44;;;;;;;7.25;4.53;;;;;;;;;;4910807;29;20509;-63
2023/05/23 01:23:40;;;;;;;9.68;4.32;;;;;;;;;;4908672;29;20052;-63
2023/05/23 01:26:17;;;;;;;6.38;4.15;;;;;;;;;;4912505;29;20126;-64
2023/05/23 01:28:46;;;;;;;9.68;4.97;;;;;;;;;;4912800;29;20052;-64
2023/05/23 01:31:16;;;;;;;11.50;4.90;;;;;;;;;;4912946;29;20453;-63
2023/05/23 01:33:43;;;;;;;10.95;5.07;;;;;;;;;;4911569;29;20131;-64
2023/05/23 01:36:12;;;;;;;8.02;5.00;;;;;;;;;;4909452;29;20063;-63
2023/05/23 01:38:38;;;;;;;9.43;5.10;;;;;;;;;;4908568;29;20067;-64
2023/05/23 01:41:05;;;;;;;8.20;4.85;;;;;;;;;;4911695;29;20052;-64
2023/05/23 01:43:32;;;;;;;10.98;4.93;;;;;;;;;;4913299;29;20055;-63
2023/05/23 01:45:59;;;;;;;11.98;4.90;;;;;;;;;;4910897;29;20058;-63
2023/05/23 01:48:27;;;;;;;11.35;4.97;;;;;;;;;;4910998;29;20258;-64
2023/05/23 01:50:56;;;;;;;15.80;4.82;;;;;;;;;;4910849;29;20079;-64
2023/05/23 01:53:22;;;;;;;6.85;4.47;;;;;;;;;;4906295;29;20056;-64
2023/05/23 01:55:50;;;;;;;7.30;4.43;;;;;;;;;;4908003;29;20048;-65
2023/05/23 01:58:16;;;;;;;10.82;4.47;;;;;;;;;;4911917;29;20058;-63
2023/05/23 02:00:42;;;;;;;9.43;4.18;;;;;;;;;;4912556;29;20060;-63
2023/05/23 02:03:08;;;;;;;8.02;4.13;;;;;;;;;;4913108;29;20496;-65
2023/05/23 02:05:34;;;;;;;8.85;4.25;;;;;;;;;;4912332;29;20184;-63
2023/05/23 02:08:00;;;;;;;10.95;4.22;;;;;;;;;;4904344;29;20063;-65
2023/05/23 02:10:27;;;;;;;6.57;4.00;;;;;;;;;;4906199;29;20088;-64
2023/05/23 02:12:54;;;;;;;5.82;3.50;;;;;;;;;;4910600;29;20052;-65
2023/05/23 02:15:20;;;;;;;7.82;3.95;;;;;;;;;;4910289;29;20584;-65
2023/05/23 02:17:47;;;;;;;7.90;4.07;;;;;;;;;;4910009;29;20048;-63
2023/05/23 02:20:13;;;;;;;7.13;3.85;;;;;;;;;;4912194;29;20096;-64
2023/05/23 02:22:39;;;;;;;6.68;3.90;;;;;;;;;;4912170;29;21043;-65
2023/05/23 02:25:07;;;;;;;7.75;3.78;;;;;;;;;;4913615;29;20079;-64
2023/05/23 02:27:33;;;;;;;7.00;3.88;;;;;;;;;;4905815;29;20084;-65
2023/05/23 02:29:59;;;;;;;7.18;4.20;;;;;;;;;;4913860;29;20056;-63
2023/05/23 02:32:25;;;;;;;10.63;4.30;;;;;;;;;;4912607;29;20052;-66
2023/05/23 02:34:51;;;;;;;6.57;3.30;;;;;;;;;;4917320;29;20052;-64
2023/05/23 02:37:17;;;;;;;6.65;3.58;;;;;;;;;;4912156;29;20457;-64
2023/05/23 02:39:43;;;;;;;7.75;3.60;;;;;;;;;;4908588;29;20420;-64
2023/05/23 02:42:09;;;;;;;7.05;2.97;;;;;;;;;;4908160;29;20106;-64
2023/05/23 02:44:35;;;;;;;6.85;3.35;;;;;;;;;;4910772;29;20056;-64
2023/05/23 02:47:01;;;;;;;5.35;3.00;;;;;;;;;;4910448;29;20053;-63
2023/05/23 02:49:27;;;;;;;6.38;3.20;;;;;;;;;;4909266;29;20119;-63
2023/05/23 02:51:53;;;;;;;5.18;3.15;;;;;;;;;;4905257;29;20469;-64
2023/05/23 02:54:19;;;;;;;6.72;3.10;;;;;;;;;;4908057;29;20088;-66
2023/05/23 02:56:45;;;;;;;9.65;3.60;;;;;;;;;;4913002;29;20060;-65
2023/05/23 02:59:12;;;;;;;5.22;2.75;;;;;;;;;;4905835;29;20480;-65
2023/05/23 03:01:37;;;;;;;8.45;3.20;;;;;;;;;;4907896;29;20047;-64
2023/05/23 03:04:03;;;;;;;10.73;3.20;;;;;;;;;;4905282;29;20055;-68
2023/05/23 03:06:32;;;;;;;6.80;3.10;;;;;;;;;;4911422;29;20052;-63
2023/05/23 03:09:01;;;;;;;8.05;3.00;;;;;;;;;;4911171;29;20515;-65
2023/05/23 03:11:28;;;;;;;6.63;3.30;;;;;;;;;;4910052;29;20049;-63
2023/05/23 03:13:55;;;;;;;5.15;2.83;;;;;;;;;;4913547;29;20485;-64
2023/05/23 03:16:22;;;;;;;7.35;3.10;;;;;;;;;;4914726;29;20512;-64
2023/05/23 03:18:49;;;;;;;7.50;3.13;;;;;;;;;;4910850;29;20639;-67
2023/05/23 03:21:15;;;;;;;7.97;3.42;;;;;;;;;;4909264;29;20063;-64
2023/05/23 03:23:41;;;;;;;8.95;2.80;;;;;;;;;;4912439;29;20063;-65
2023/05/23 03:26:07;;;;;;;6.88;2.90;;;;;;;;;;4913240;29;20324;-64
2023/05/23 03:28:33;;;;;;;6.38;3.00;;;;;;;;;;4911261;29;20068;-64
2023/05/23 03:30:58;;;;;;;8.55;2.40;;;;;;;;;;4910596;29;20412;-65
2023/05/23 03:33:24;;;;;;;7.65;3.10;;;;;;;;;;4908967;29;20044;-63
2023/05/23 03:35:51;;;;;;;7.88;2.90;;;;;;;;;;4910870;29;20052;-64
2023/05/23 03:38:17;;;;;;;10.63;2.95;;;;;;;;;;4908993;29;20493;-65
2023/05/23 03:40:43;;;;;;;7.55;2.90;;;;;;;;;;4911246;29;20048;-66
2023/05/23 03:43:10;;;;;;;8.50;2.88;;;;;;;;;;4905978;29;20544;-64
2023/05/23 03:45:35;;;;;;;6.60;2.35;;;;;;;;;;4907156;29;20147;-66
2023/05/23 03:48:01;;;;;;;9.38;3.10;;;;;;;;;;4911219;29;20060;-66
2023/05/23 03:50:27;;;;;;;7.50;2.83;;;;;;;;;;4919792;29;20055;-65
2023/05/23 03:52:54;;;;;;;9.00;2.90;;;;;;;;;;4906653;29;20056;-65
2023/05/23 03:55:21;;;;;;;8.68;2.60;;;;;;;;;;4907192;29;20112;-64
2023/05/23 03:57:48;;;;;;;7.18;2.92;;;;;;;;;;4914783;29;20048;-64
2023/05/23 04:00:14;;;;;;;12.02;2.95;;;;;;;;;;4913745;29;20051;-69
2023/05/23 04:02:40;;;;;;;8.30;2.67;;;;;;;;;;4913959;29;20060;-64
2023/05/23 04:05:06;;;;;;;6.05;2.60;;;;;;;;;;4915636;29;20051;-65
2023/05/23 04:07:36;;;;;;;7.28;2.63;;;;;;;;;;4915172;29;20060;-69
2023/05/23 04:10:05;;;;;;;6.03;2.58;;;;;;;;;;4916803;29;20048;-67
2023/05/23 04:12:31;;;;;;;8.20;2.97;;;;;;;;;;4918712;29;20413;-64
2023/05/23 04:14:59;;;;;;;6.28;2.60;;;;;;;;;;4917619;29;20489;-66
2023/05/23 04:18:06;;;;;;;7.68;2.72;;;;;;;;;;4913571;29;22554;-66
2023/05/23 04:21:45;;;;;;;7.88;2.30;;;;;;;;;;4910497;29;20058;-66
2023/05/23 04:25:26;;;;;;;7.15;2.42;;;;;;;;;;4915433;29;20106;-64
2023/05/23 04:29:06;;;;;;;4.53;2.63;;;;;;;;;;4909488;29;20052;-66
2023/05/23 04:32:47;;;;;;;7.65;2.58;;;;;;;;;;4913212;29;20505;-62
2023/05/23 04:36:26;;;;;;;6.63;2.67;;;;;;;;;;4908148;29;20086;-64
2023/05/23 04:40:07;;;;;;;7.78;2.47;;;;;;;;;;4908003;29;20519;-64
2023/05/23 04:43:47;;;;;;;10.07;3.03;;;;;;;;;;4911958;29;20052;-66
2023/05/23 04:47:28;;;;;;;7.28;2.72;;;;;;;;;;4909784;29;20160;-64
2023/05/23 04:51:08;;;;;;;5.97;2.67;;;;;;;;;;4905080;29;20068;-65
2023/05/23 04:54:48;;;;;;;7.53;2.72;;;;;;;;;;4910830;29;20056;-64
2023/05/23 04:58:30;;;;;;;10.30;2.78;;;;;;;;;;4911958;29;20078;-66
2023/05/23 05:02:13;;;;;;;13.27;2.90;;;;;;;;;;4909538;29;20079;-69
2023/05/23 05:05:54;;;;;;;29.17;3.58;;;;;;;;;;4907475;29;20044;-68
2023/05/23 05:09:35;;;;;;;8.55;3.05;;;;;;;;;;4910899;29;20044;-68
2023/05/23 05:13:16;;;;;;;12.82;2.92;;;;;;;;;;4906713;29;20286;-68
2023/05/23 05:16:58;;;;;;;7.07;2.47;;;;;;;;;;4903898;29;20087;-66
2023/05/23 05:20:39;;;;;;;9.15;2.67;;;;;;;;;;4903945;29;20051;-66
2023/05/23 05:23:53;;;;;;;7.13;2.53;;;;;;;;;;4899429;29;20098;-66
2023/05/23 05:27:36;;;;;;;9.98;2.90;;;;;;;;;;4903783;29;20221;-64
2023/05/23 05:31:17;;;;;;;9.05;3.33;;;;;;;;;;4904639;29;20064;-65
2023/05/23 05:34:58;;;;;;;9.90;2.85;;;;;;;;;;4904444;29;20063;-66
2023/05/23 05:38:15;;;;;;;12.02;3.85;;;;;;;;;;4907307;29;20398;-66
2023/05/23 05:41:21;;;;;;;8.30;3.72;;;;;;;;;;4910447;29;20047;-66
2023/05/23 05:45:01;;;;;;;9.57;4.25;;;;;;;;;;4911012;29;20420;-66
2023/05/23 05:48:41;;;;;;;12.73;4.15;;;;;;;;;;4904146;29;20040;-66
2023/05/23 05:52:23;;;;;;;12.18;4.88;;;;;;;;;;4902212;29;20123;-65
2023/05/23 05:56:05;;;;;;;9.45;4.00;;;;;;;;;;4909626;29;20056;-66
2023/05/23 05:59:45;;;;;;;14.35;4.55;;;;;;;;;;4910273;29;20040;-65
2023/05/23 06:03:30;;;;;;;14.65;5.03;;;;;;;;;;4909210;29;20048;-64
2023/05/23 06:07:14;;;;;;;16.40;5.38;;;;;;;;;;4903760;29;20040;-63
2023/05/23 06:10:55;;;;;;;11.27;4.95;;;;;;;;;;4911774;29;20071;-65
2023/05/23 06:14:35;;;;;;;14.98;5.07;;;;;;;;;;4910730;29;20071;-62
2023/05/23 06:18:16;;;;;;;16.05;5.20;;;;;;;;;;4907750;29;20052;-64
2023/05/23 06:21:56;;;;;;;14.25;5.10;;;;;;;;;;4907196;29;20468;-65
2023/05/23 06:25:36;;;;;;;15.77;5.13;;;;;;;;;;4911915;29;20171;-65
2023/05/23 06:29:17;;;;;;;17.70;4.63;;;;;;;;;;4906652;29;20063;-64
2023/05/23 06:32:57;;;;;;;14.75;5.25;;;;;;;;;;4905752;29;20104;-65
2023/05/23 06:36:37;;;;;;;12.63;4.65;;;;;;;;;;4907348;29;20439;-66
2023/05/23 06:40:18;;;;;;;15.07;5.03;;;;;;;;;;4909064;29;20441;-65
2023/05/23 06:43:58;;;;;;;15.15;5.10;;;;;;;;;;4899390;29;20055;-65
2023/05/23 06:47:42;;;;;;;13.23;4.63;;;;;;;;;;4904276;29;20450;-63
2023/05/23 06:50:57;;;;;;;7.70;4.70;;;;;;;;;;4902383;29;20103;-66
2023/05/23 06:53:23;;;;;;;13.63;5.03;;;;;;;;;;4905869;29;20048;-64
2023/05/23 06:55:50;;;;;;;13.20;4.50;;;;;;;;;;4910313;29;20055;-67
2023/05/23 06:58:16;;;;;;;9.88;4.57;;;;;;;;;;4909826;29;20406;-67
2023/05/23 07:00:43;;;;;;;15.20;4.65;;;;;;;;;;4906828;29;20114;-66
2023/05/23 07:03:10;;;;;;;15.13;5.13;;;;;;;;;;4903338;29;20051;-65
2023/05/23 07:05:36;;;;;;;14.35;4.50;;;;;;;;;;4908558;29;20588;-65
2023/05/23 07:08:02;;;;;;;16.27;5.13;;;;;;;;;;4907176;29;20568;-65
2023/05/23 07:10:29;;;;;;;11.38;4.88;;;;;;;;;;4913426;29;20060;-66
2023/05/23 07:12:59;;;;;;;12.65;5.07;;;;;;;;;;4909924;29;20064;-68
2023/05/23 07:15:25;;;;;;;13.10;4.93;;;;;;;;;;4908380;29;20079;-66
2023/05/23 07:18:31;;;;;;;13.93;5.32;;;;;;;;;;4907349;29;20076;-67
2023/05/23 07:22:11;;;;;;;12.93;4.90;;;;;;;;;;4900831;29;20048;-67
2023/05/23 07:25:52;;;;;;;14.40;5.18;;;;;;;;;;4904329;29;20476;-69
2023/05/23 07:28:59;;;;;;;12.52;5.20;;;;;;;;;;4904246;29;20062;-65
2023/05/23 07:32:40;;;;;;;9.63;5.00;;;;;;;;;;4903067;29;20119;-65
2023/05/23 07:36:21;;;;;;;10.82;5.40;;;;;;;;;;4905487;29;20058;-67
2023/05/23 07:40:00;;;;;;;9.07;4.93;;;;;;;;;;4905634;29;20135;-66
2023/05/23 07:43:42;;;;;;;10.93;5.18;;;;;;;;;;4907710;29;20063;-65
2023/05/23 07:47:23;;;;;;;10.82;5.28;;;;;;;;;;4910934;29;20146;-66
2023/05/23 07:51:02;;;;;;;7.05;4.75;;;;;;;;;;4905378;29;20056;-66
2023/05/23 07:54:43;;;;;;;11.30;5.40;;;;;;;;;;4909436;29;20083;-67
2023/05/23 07:58:26;;;;;;;10.90;5.80;;;;;;;;;;4909083;29;20049;-68
2023/05/23 08:02:11;;;;;;;12.65;6.20;;;;;;;;;;4911219;29;20055;-66
2023/05/23 08:05:52;;;;;;;11.38;6.38;;;;;;;;;;4906511;29;20183;-66
2023/05/23 08:09:32;;;;;;;14.20;6.38;;;;;;;;;;4908655;29;20094;-67
2023/05/23 08:13:13;;;;;;;10.43;6.45;;;;;;;;;;4923686;29;20048;-65
2023/05/23 08:16:54;;;;;;;13.90;6.68;;;;;;;;;;4909129;29;20459;-67
2023/05/23 08:20:35;;;;;;;11.07;6.10;;;;;;;;;;4910828;29;20310;-66
2023/05/23 08:24:16;;;;;;;14.07;6.32;;;;;;;;;;4912477;29;20050;-66
2023/05/23 08:27:57;;;;;;;11.95;6.88;;;;;;;;;;4912023;29;20067;-69
2023/05/23 08:31:36;;;;;;;15.05;6.72;;;;;;;;;;4911031;29;20413;-67
2023/05/23 08:35:17;;;;;;;13.88;6.95;;;;;;;;;;4912247;29;20036;-65
2023/05/23 08:38:57;;;;;;;15.65;6.72;;;;;;;;;;4906967;29;20100;-66
2023/05/23 08:42:38;;;;;;;15.75;7.40;;;;;;;;;;4905828;29;20064;-64
2023/05/23 08:46:15;;;;;;;19.50;6.90;;;;;;;;;;4910349;29;20072;-69
2023/05/23 08:48:43;;;;;;;14.52;7.03;;;;;;;;;;4924301;29;20059;-67
2023/05/23 08:51:12;;;;;;;13.35;7.15;;;;;;;;;;4909678;29;20543;-67
2023/05/23 08:53:43;;;;;;;13.52;7.25;;;;;;;;;;4912665;29;20054;-67
2023/05/23 08:56:10;;;;;;;11.43;7.35;;;;;;;;;;4913055;29;20135;-67
2023/05/23 08:58:37;;;;;;;18.27;7.32;;;;;;;;;;4911809;29;20682;-66
2023/05/23 09:01:03;;;;;;;17.10;7.40;;;;;;;;;;4902835;29;20052;-66
2023/05/23 09:03:30;;;;;;;19.65;7.25;;;;;;;;;;4909986;29;20059;-68
2023/05/23 09:05:56;;;;;;;19.15;7.15;;;;;;;;;;4917738;29;20099;-70
2023/05/23 09:08:25;;;;;;;30.30;8.00;;;;;;;;;;4914183;29;20044;-66
2023/05/23 09:10:52;;;;;;;11.30;6.93;;;;;;;;;;4911241;29;20040;-66
2023/05/23 09:13:19;;;;;;;15.85;7.40;;;;;;;;;;4905389;29;20055;-66
2023/05/23 09:16:05;;;;;;;13.30;7.15;;;;;;;;;;4912323;29;20401;-66
2023/05/23 09:18:39;;;;;;;15.13;7.75;;;;;;;;;;4906570;29;20052;-66
2023/05/23 09:21:10;;;;;;;14.45;7.20;;;;;;;;;;4909081;29;20075;-66
2023/05/23 09:23:52;;;;;;;17.15;7.18;;;;;;;;;;4911313;29;20066;-66
2023/05/23 09:26:20;;;;;;;20.50;7.70;;;;;;;;;;4908345;29;20162;-67
2023/05/23 09:28:45;;;;;;;17.65;6.93;;;;;;;;;;4910750;29;20056;-66
2023/05/23 09:31:12;;;;;;;23.80;7.03;;;;;;;;;;4908745;29;20044;-67
2023/05/23 09:33:47;;;;;;;18.52;7.93;;;;;;;;;;4910169;29;20568;-65
2023/05/23 09:36:18;;;;;;;16.23;8.05;;;;;;;;;;4908387;29;20044;-66
2023/05/23 09:38:47;;;;;;;14.38;7.10;;;;;;;;;;4919911;29;20131;-65
2023/05/23 09:41:15;;;;;;;18.40;7.40;;;;;;;;;;4908324;29;20056;-68
2023/05/23 09:43:53;;;;;;;18.38;7.70;;;;;;;;;;4909923;29;20288;-64
2023/05/23 09:46:26;;;;;;;17.30;8.43;;;;;;;;;;4910715;29;20555;-66
2023/05/23 09:48:54;;;;;;;15.35;7.43;;;;;;;;;;4910231;29;20056;-66
2023/05/23 09:51:23;;;;;;;14.45;7.60;;;;;;;;;;4914012;29;20052;-67
2023/05/23 09:53:49;;;;;;;16.70;7.13;;;;;;;;;;4913719;29;20063;-66
2023/05/23 09:56:18;;;;;;;15.60;7.50;;;;;;;;;;4913079;29;20414;-66
2023/05/23 09:58:49;;;;;;;15.70;7.53;;;;;;;;;;4909119;29;20124;-65
2023/05/23 10:01:18;;;;;;;22.08;7.45;;;;;;;;;;4911482;29;20338;-66
2023/05/23 10:03:56;;;;;;;14.70;6.85;;;;;;;;;;4908000;29;20076;-69
2023/05/23 10:06:25;;;;;;;22.40;7.97;;;;;;;;;;4911013;29;20055;-67
2023/05/23 10:08:57;;;;;;;14.50;7.57;;;;;;;;;;4910848;29;20036;-64
2023/05/23 10:11:35;;;;;;;15.75;7.20;;;;;;;;;;4910397;29;20062;-67
2023/05/23 10:14:06;;;;;;;21.42;7.38;;;;;;;;;;4911431;29;20264;-67
2023/05/23 10:16:59;;;;;;;15.65;7.45;;;;;;;;;;4912553;29;20048;-65
2023/05/23 10:19:38;;;;;;;18.25;7.45;;;;;;;;;;4910878;29;20060;-66
2023/05/23 10:22:09;;;;;;;22.33;7.93;;;;;;;;;;4908129;29;20460;-68
2023/05/23 10:24:36;;;;;;;21.90;7.78;;;;;;;;;;4893130;29;20806;-67
2023/05/23 10:27:03;;;;;;;16.33;8.05;;;;;;;;;;4909564;29;20056;-66
2023/05/23 10:29:32;;;;;;;22.90;7.68;;;;;;;;;;4904771;29;20052;-67
2023/05/23 10:32:01;;;;;;;17.95;7.15;;;;;;;;;;4911301;29;20560;-66
2023/05/23 10:34:37;;;;;;;16.40;7.43;;;;;;;;;;4904805;29;20044;-64
2023/05/23 10:37:06;;;;;;;14.38;7.15;;;;;;;;;;4907967;29;20467;-70
2023/05/23 10:39:57;;;;;;;18.25;7.43;;;;;;;;;;4904948;29;20087;-65
2023/05/23 10:42:45;;;;;;;14.95;7.75;;;;;;;;;;4898495;29;20115;-67
2023/05/23 10:45:19;;;;;;;18.45;7.80;;;;;;;;;;4904164;29;20095;-66
2023/05/23 10:47:51;;;;;;;18.00;7.55;;;;;;;;;;4904459;29;20065;-65
2023/05/23 10:50:45;;;;;;;15.52;7.45;;;;;;;;;;4914076;29;20411;-67
2023/05/23 10:53:15;;;;;;;15.13;7.05;;;;;;;;;;4911983;29;20163;-67
2023/05/23 10:55:47;;;;;;;12.63;6.78;;;;;;;;;;4908212;29;20508;-71
2023/05/23 10:58:20;;;;;;;14.57;7.20;;;;;;;;;;4910522;29;20124;-66
2023/05/23 11:00:56;;;;;;;15.98;6.72;;;;;;;;;;4911128;29;20055;-67
2023/05/23 11:03:47;;;;;;;13.65;6.53;;;;;;;;;;4903229;29;20131;-66
2023/05/23 11:06:42;;;;;;;16.40;6.80;;;;;;;;;;4902519;29;20044;-70
2023/05/23 11:09:20;;;;;;;18.77;7.15;;;;;;;;;;4901276;29;20065;-67
2023/05/23 11:11:52;;;;;;;15.48;6.70;;;;;;;;;;4907348;29;20040;-66
2023/05/23 11:14:28;;;;;;;15.55;6.13;;;;;;;;;;4912773;29;20582;-68
2023/05/23 11:16:54;;;;;;;20.25;7.00;;;;;;;;;;4910847;29;20071;-67
2023/05/23 11:19:21;;;;;;;15.25;6.72;;;;;;;;;;4860390;29;1492977;-68
2023/05/23 11:21:57;;;;;;;21.40;6.57;;;;;;;;;;4909738;29;20766;-66
2023/05/23 11:24:54;;;;;;;17.15;7.10;;;;;;;;;;4913190;29;20234;-67
2023/05/23 11:27:33;;;;;;;13.68;6.57;;;;;;;;;;4913388;29;20052;-67
2023/05/23 11:30:07;;;;;;;16.70;7.00;;;;;;;;;;4908781;29;20094;-67
2023/05/23 11:32:34;;;;;;;;;;;;;;;;;;4913867;29;20040;-68
2023/05/23 11:35:23;;;;;;;15.05;6.28;;;;;;;;;;4914723;29;19923;-68
2023/05/23 11:37:49;;;;;;;16.23;6.00;;;;;;;;;;4915802;29;20542;-67
2023/05/23 11:40:38;;;;;;;12.55;5.90;;;;;;;;;;4913079;29;20056;-67
2023/05/23 11:43:06;;;;;;;15.57;5.65;;;;;;;;;;4906122;29;20047;-66
2023/05/23 11:45:33;;;;;;;12.88;5.63;;;;;;;;;;4913282;29;20062;-67
2023/05/23 11:48:08;;;;;;;18.50;6.35;;;;;;;;;;4913031;29;20044;-65
2023/05/23 11:50:45;;;;;;;13.32;6.32;;;;;;;;;;4927136;29;20076;-67
2023/05/23 11:53:12;;;;;;;13.35;6.15;;;;;;;;;;4910947;29;20140;-66
2023/05/23 11:55:48;;;;;;;11.60;6.30;;;;;;;;;;4913067;29;20044;-65
2023/05/23 11:58:14;;;;;;;13.85;6.63;;;;;;;;;;4913408;29;20068;-67
2023/05/23 12:00:44;;;;;;;17.58;6.53;;;;;;;;;;4916623;29;20044;-67
2023/05/23 12:03:10;;;;;;;13.88;7.22;;;;;;;;;;4912605;29;20464;-67
2023/05/23 12:05:36;;;;;;;19.67;6.95;;;;;;;;;;4904355;29;20067;-67
2023/05/23 12:08:02;;;;;;;12.50;6.82;;;;;;;;;;4909400;29;20055;-66
2023/05/23 12:10:29;;;;;;;16.38;7.40;;;;;;;;;;4907421;29;20135;-67
2023/05/23 12:12:55;;;;;;;14.23;7.30;;;;;;;;;;4916956;29;20500;-67
2023/05/23 12:15:28;;;;;;;15.48;7.35;;;;;;;;;;4911724;29;20052;-65
2023/05/23 12:17:55;;;;;;;20.92;7.88;;;;;;;;;;4907297;29;20040;-69
2023/05/23 12:20:23;;;;;;;15.82;7.55;;;;;;;;;;4909933;29;20048;-67
2023/05/23 12:22:48;;;;;;;17.55;8.32;;;;;;;;;;4912347;29;20095;-68
2023/05/23 12:25:15;;;;;;;12.45;7.75;;;;;;;;;;4914665;29;20048;-69
2023/05/23 12:27:43;;;;;;;20.30;8.13;;;;;;;;;;4910235;29;20051;-67
2023/05/23 12:30:15;;;;;;;18.67;8.43;;;;;;;;;;4911902;29;20107;-67
2023/05/23 12:32:42;;;;;;;15.43;7.70;;;;;;;;;;4913086;29;20052;-66
2023/05/23 12:35:11;;;;;;;17.85;7.60;;;;;;;;;;4911718;29;20061;-65
2023/05/23 12:37:46;;;;;;;13.25;7.53;;;;;;;;;;4910305;29;20508;-68
2023/05/23 12:40:16;;;;;;;17.90;6.63;;;;;;;;;;4914379;29;20059;-68
2023/05/23 12:42:53;;;;;;;17.65;6.78;;;;;;;;;;4912021;29;20263;-66
2023/05/23 12:45:30;;;;;;;16.52;7.05;;;;;;;;;;4908568;29;20048;-65
2023/05/23 12:47:56;;;;;;;16.50;6.43;;;;;;;;;;4913760;29;20071;-66
2023/05/23 12:50:22;;;;;;;12.75;6.57;;;;;;;;;;4914440;29;20048;-66
2023/05/23 12:52:54;;;;;;;10.15;6.60;;;;;;;;;;4907885;29;20126;-66
2023/05/23 12:55:21;;;;;;;13.18;6.53;;;;;;;;;;4913636;29;20071;-70
2023/05/23 12:57:47;;;;;;;22.38;7.43;;;;;;;;;;4912020;29;20040;-65
2023/05/23 13:00:14;;;;;;;18.45;7.28;;;;;;;;;;4912310;29;20046;-67
2023/05/23 13:02:40;;;;;;;14.38;7.47;;;;;;;;;;4907850;29;20048;-65
2023/05/23 13:05:06;;;;;;;14.55;7.35;;;;;;;;;;4911495;29;20048;-67
2023/05/23 13:07:32;;;;;;;11.80;7.05;;;;;;;;;;4913070;29;20130;-67
2023/05/23 13:09:59;;;;;;;14.93;7.72;;;;;;;;;;4913857;29;20032;-66
2023/05/23 13:12:29;;;;;;;16.73;6.85;;;;;;;;;;4916912;29;20048;-66
2023/05/23 13:14:57;;;;;;;16.38;7.85;;;;;;;;;;4912495;29;20036;-68
2023/05/23 13:17:23;;;;;;;17.90;7.70;;;;;;;;;;4909504;29;20120;-68
2023/05/23 13:19:50;;;;;;;15.73;7.15;;;;;;;;;;4911345;29;20052;-68
2023/05/23 13:22:16;;;;;;;17.58;8.68;;;;;;;;;;4912315;29;20066;-68
2023/05/23 13:24:42;;;;;;;12.15;3.40;;;;;;;;;;4908350;29;20040;-68
2023/05/23 13:27:08;;;;;;;7.40;2.20;;;;;;;;;;4910540;29;20116;-66
2023/05/23 13:29:34;;;;;;;7.90;1.95;;;;;;;;;;4912757;29;20131;-68
2023/05/23 13:32:00;;;;;;;6.97;1.90;;;;;;;;;;4912175;29;20051;-68
2023/05/23 13:34:27;;;;;;;5.57;1.98;;;;;;;;;;4912400;29;20439;-68
2023/05/23 13:36:53;;;;;;;7.15;1.70;;;;;;;;;;4912599;29;20123;-67
2023/05/23 13:39:21;;;;;;;6.07;1.60;;;;;;;;;;4912598;29;20040;-65
2023/05/23 13:41:48;;;;;;;5.97;1.48;;;;;;;;;;4913026;29;20052;-67
2023/05/23 13:44:14;;;;;;;6.35;1.50;;;;;;;;;;4903587;29;20151;-69
2023/05/23 13:46:42;;;;;;;3.90;1.73;;;;;;;;;;4910573;29;20499;-67
2023/05/23 13:49:08;;;;;;;5.47;1.73;;;;;;;;;;4909008;29;20044;-66
2023/05/23 13:51:36;;;;;;;4.93;1.60;;;;;;;;;;4911571;29;20067;-66
2023/05/23 13:54:03;;;;;;;7.82;1.77;;;;;;;;;;4909548;29;20047;-66
2023/05/23 13:56:29;;;;;;;7.35;1.98;;;;;;;;;;4911282;29;20478;-66
2023/05/23 13:58:55;;;;;;;9.05;1.98;;;;;;;;;;4910621;29;20052;-64
2023/05/23 14:01:21;;;;;;;9.45;2.33;;;;;;;;;;4910772;29;20067;-66
2023/05/23 14:03:48;;;;;;;6.38;2.00;;;;;;;;;;4910047;29;20556;-66
2023/05/23 14:06:14;;;;;;;12.48;2.42;;;;;;;;;;4913686;29;20048;-67
2023/05/23 14:08:41;;;;;;;20.13;3.47;;;;;;;;;;4908402;29;20494;-67
2023/05/23 14:11:08;;;;;;;11.65;3.00;;;;;;;;;;4913387;29;20067;-65
2023/05/23 14:13:34;;;;;;;13.57;3.65;;;;;;;;;;4908680;29;20102;-64
2023/05/23 14:16:00;;;;;;;16.95;3.47;;;;;;;;;;4911992;29;20044;-64
2023/05/23 14:18:26;;;;;;;14.88;3.83;;;;;;;;;;4910899;29;20051;-66
2023/05/23 14:20:56;;;;;;;15.32;4.13;;;;;;;;;;4911565;29;20058;-65
2023/05/23 14:23:22;;;;;;;58.15;6.85;;;;;;;;;;4911290;29;20119;-64
2023/05/23 14:25:50;;;;;;;62.35;6.15;;;;;;;;;;4908581;29;20157;-67
2023/05/23 14:28:17;;;;;;;18.17;5.22;;;;;;;;;;4909926;29;20058;-64
2023/05/23 14:30:43;;;;;;;21.63;3.15;;;;;;;;;;4910874;29;20262;-64
2023/05/23 14:33:09;;;;;;;20.38;4.38;;;;;;;;;;4906503;29;20044;-62
2023/05/23 14:35:35;;;;;;;16.90;4.97;;;;;;;;;;4912131;29;20398;-65
2023/05/23 14:38:04;;;;;;;19.50;4.22;;;;;;;;;;4909959;29;20147;-66
2023/05/23 14:40:32;;;;;;;23.77;5.30;;;;;;;;;;4909427;29;20056;-67
2023/05/23 14:43:39;;;;;;;24.98;4.90;;;;;;;;;;4908148;29;20481;-68
2023/05/23 14:47:20;;;;;;;23.30;5.15;;;;;;;;;;4907862;29;20124;-66
2023/05/23 14:51:02;;;;;;;30.13;5.47;;;;;;;;;;4916010;29;20110;-69
2023/05/23 14:54:44;;;;;;;29.10;6.03;;;;;;;;;;4908465;29;20107;-71
2023/05/23 14:57:45;;;;;;;27.65;5.28;;;;;;;;;;4908283;29;20063;-61
2023/05/23 15:00:51;;;;;;;14.52;4.40;;;;;;;;;;4904176;29;20944;-67
2023/05/23 15:04:32;;;;;;;13.13;4.05;;;;;;;;;;4908586;29;20044;-69
2023/05/23 15:08:12;;;;;;;18.52;4.50;;;;;;;;;;4905161;29;20056;-65
2023/05/23 15:11:53;;;;;;;13.43;4.15;;;;;;;;;;4906573;29;20063;-60
2023/05/23 15:15:37;;;;;;;15.95;5.40;;;;;;;;;;4901396;29;20516;-62
2023/05/23 15:19:17;;;;;;;20.10;4.53;;;;;;;;;;4908220;29;20119;-60
2023/05/23 15:22:58;;;;;;;13.70;3.90;;;;;;;;;;4906338;29;20162;-56
2023/05/23 15:26:38;;;;;;;14.90;4.32;;;;;;;;;;4901693;29;20116;-63
2023/05/23 15:30:18;;;;;;;17.92;4.63;;;;;;;;;;4905843;29;20056;-59
2023/05/23 15:33:59;;;;;;;16.10;4.13;;;;;;;;;;4905034;29;20048;-65
2023/05/23 15:37:39;;;;;;;16.17;4.07;;;;;;;;;;4911759;29;20058;-60
2023/05/23 15:41:20;;;;;;;14.52;4.47;;;;;;;;;;4913050;29;20048;-70
2023/05/23 15:45:01;;;;;;;23.52;5.25;;;;;;;;;;4911337;29;20047;-62
2023/05/23 15:48:41;;;;;;;18.90;4.47;;;;;;;;;;4904233;29;20099;-58
2023/05/23 15:52:21;;;;;;;15.63;4.25;;;;;;;;;;4900338;29;20158;-61
2023/05/23 15:56:03;;;;;;;17.23;4.47;;;;;;;;;;4906618;29;20059;-64
2023/05/23 15:59:43;;;;;;;11.52;4.07;;;;;;;;;;4912209;29;20508;-62
2023/05/23 16:03:24;;;;;;;13.23;4.10;;;;;;;;;;4909980;29;20055;-64
2023/05/23 16:07:04;;;;;;;20.13;5.15;;;;;;;;;;4907245;29;20136;-66
2023/05/23 16:10:45;;;;;;;14.45;4.50;;;;;;;;;;4911921;29;20048;-64
2023/05/23 16:14:25;;;;;;;11.43;4.28;;;;;;;;;;4909197;29;20047;-64
2023/05/23 16:18:05;;;;;;;11.10;4.35;;;;;;;;;;4914659;29;20114;-63
2023/05/23 16:21:49;;;;;;;8.90;4.82;;;;;;;;;;4911120;29;20098;-61
2023/05/23 16:25:28;;;;;;;11.00;5.30;;;;;;;;;;4913947;29;20425;-61
2023/05/23 16:29:11;;;;;;;12.57;5.30;;;;;;;;;;4901170;29;20059;-61
2023/05/23 16:32:50;;;;;;;13.95;5.18;;;;;;;;;;4905243;29;20111;-59
2023/05/23 16:36:31;;;;;;;17.25;6.03;;;;;;;;;;4910355;29;20509;-62
2023/05/23 16:40:11;;;;;;;16.20;6.15;;;;;;;;;;4913520;29;20056;-63
2023/05/23 16:43:51;;;;;;;14.95;5.88;;;;;;;;;;4907843;29;20057;-61